Time;durP1;ratioP1;P1;durP2;ratioP2;P2;SDS_P1;SDS_P2;PMS_P1;PMS_P2;Temp;Humidity;BMP_temperature;BMP_pressure;BME280_temperature;BME280_humidity;BME280_pressure;Samples;Min_cycle;Max_cycle;Signal;HPM_P1;HPM_P2
2022/04/07 00:01:30;;;;;;;;;;;;;;;16.09;56.77;99037.00;5055252;28;19912;-76
2022/04/07 00:03:56;;;;;;;;;;;;;;;15.16;59.65;99039.41;5054313;28;20399;-73
2022/04/07 00:06:21;;;;;;;;;;;;;;;16.21;56.72;99029.16;5054585;28;20008;-74
2022/04/07 00:08:46;;;;;;;;;;;;;;;15.54;58.94;99043.59;5054532;28;19920;-76
2022/04/07 00:11:12;;;;;;;;;;;;;;;15.27;59.85;99043.56;5054556;28;19917;-75
2022/04/07 00:13:37;;;;;;;;;;;;;;;15.49;59.14;99041.78;5054700;28;19927;-73
2022/04/07 00:16:02;;;;;;;;;;;;;;;15.82;58.34;99028.94;5054678;28;19916;-74
2022/04/07 00:18:28;;;;;;;;;;;;;;;15.17;60.01;99030.22;5052658;28;19916;-73
2022/04/07 00:20:54;;;;;;;;;;;;;;;15.26;59.95;99023.00;5054365;28;19921;-75
2022/04/07 00:23:19;;;;;;;;;;;;;;;15.03;60.33;99015.84;5054077;28;19913;-75
2022/04/07 00:25:45;;;;;;;;;;;;;;;15.25;59.90;99007.88;5054631;28;20387;-73
2022/04/07 00:28:10;;;;;;;;;;;;;;;15.19;60.35;99000.94;5053871;28;20423;-75
2022/04/07 00:30:39;;;;;;;;;;;;;;;14.85;61.52;98999.41;5054295;28;19947;-74
2022/04/07 00:33:05;;;;;;;;;;;;;;;15.66;58.98;98985.09;5053864;28;19920;-74
2022/04/07 00:35:30;;;;;;;;;;;;;;;15.00;60.23;99019.94;5054200;28;19919;-74
2022/04/07 00:37:55;;;;;;;;;;;;;;;15.29;59.77;98989.94;5053850;28;20422;-75
2022/04/07 00:40:21;;;;;;;;;;;;;;;15.22;59.89;98976.78;5054778;28;19943;-74
2022/04/07 00:42:47;;;;;;;;;;;;;;;14.98;59.66;98984.28;5054372;28;19921;-75
2022/04/07 00:45:12;;;;;;;;;;;;;;;14.91;60.58;98975.78;5054171;28;20281;-72
2022/04/07 00:47:38;;;;;;;;;;;;;;;14.84;60.07;98981.56;5053884;28;20009;-75
2022/04/07 00:50:03;;;;;;;;;;;;;;;15.99;57.31;98952.44;5054910;28;19913;-74
2022/04/07 00:52:30;;;;;;;;;;;;;;;15.25;59.08;98967.28;5054237;28;19923;-74
2022/04/07 00:54:56;;;;;;;;;;;;;;;14.93;60.58;98968.97;5053487;28;20438;-74
2022/04/07 00:57:21;;;;;;;;;;;;;;;14.93;60.21;98957.34;5053795;28;19963;-76
2022/04/07 00:59:47;;;;;;;;;;;;;;;14.99;60.56;98948.03;5053889;28;20369;-75
2022/04/07 01:02:13;;;;;;;;;;;;;;;14.77;60.45;98937.91;5050937;28;20292;-74
2022/04/07 01:04:39;;;;;;;;;;;;;;;15.01;59.97;98942.31;5053035;28;19936;-73
2022/04/07 01:07:06;;;;;;;;;;;;;;;14.85;59.68;98936.41;5053510;28;20308;-73
2022/04/07 01:09:31;;;;;;;;;;;;;;;15.05;59.02;98932.50;5052235;28;20313;-75
2022/04/07 01:11:57;;;;;;;;;;;;;;;15.17;58.66;98916.56;5053818;28;19999;-74
2022/04/07 01:14:22;;;;;;;;;;;;;;;14.79;58.98;98926.78;5052618;28;20384;-75
2022/04/07 01:16:47;;;;;;;;;;;;;;;15.50;57.29;98920.75;5053362;28;20410;-75
2022/04/07 01:19:12;;;;;;;;;;;;;;;15.13;57.81;98919.09;5051652;28;19909;-73
2022/04/07 01:21:38;;;;;;;;;;;;;;;15.02;58.80;98911.47;5053192;28;19912;-76
2022/04/07 01:24:04;;;;;;;;;;;;;;;15.17;57.67;98903.03;5053121;28;20031;-74
2022/04/07 01:26:33;;;;;;;;;;;;;;;15.48;57.38;98893.19;5052352;28;19920;-74
2022/04/07 01:29:02;;;;;;;;;;;;;;;15.64;57.28;98902.59;5053103;28;19920;-73
2022/04/07 01:31:27;;;;;;;;;;;;;;;15.42;57.62;98891.69;5053325;28;19940;-73
2022/04/07 01:33:54;;;;;;;;;;;;;;;15.31;58.23;98876.78;5052599;28;19955;-73
2022/04/07 01:36:19;;;;;;;;;;;;;;;14.94;59.00;98886.72;5052865;28;20458;-74
2022/04/07 01:38:45;;;;;;;;;;;;;;;15.28;57.92;98861.13;5052569;28;19959;-74
2022/04/07 01:41:11;;;;;;;;;;;;;;;15.05;59.18;98867.56;5052845;28;19916;-75
2022/04/07 01:43:38;;;;;;;;;;;;;;;15.13;58.35;98856.84;5052891;28;19908;-73
2022/04/07 01:46:03;;;;;;;;;;;;;;;15.78;56.54;98858.09;5053313;28;20293;-74
2022/04/07 01:48:29;;;;;;;;;;;;;;;14.94;58.91;98856.16;5052034;28;19933;-75
2022/04/07 01:50:55;;;;;;;;;;;;;;;15.37;57.93;98851.19;5052316;28;19923;-74
2022/04/07 01:53:21;;;;;;;;;;;;;;;15.49;57.29;98840.66;5052057;28;19948;-72
2022/04/07 01:55:47;;;;;;;;;;;;;;;15.43;57.03;98847.31;5051805;28;20368;-74
2022/04/07 01:58:16;;;;;;;;;;;;;;;15.54;56.73;98854.09;5051994;28;19923;-74
2022/04/07 02:00:41;;;;;;;;;;;;;;;15.11;57.88;98848.25;5052357;28;20368;-74
2022/04/07 02:03:08;;;;;;;;;;;;;;;14.76;58.68;98854.38;5050663;28;19912;-74
2022/04/07 02:05:35;;;;;;;;;;;;;;;15.29;57.33;98833.75;5051900;28;20364;-74
2022/04/07 02:08:02;;;;;;;;;;;;;;;15.52;56.57;98824.63;5051850;28;19909;-73
2022/04/07 02:10:28;;;;;;;;;;;;;;;15.42;56.49;98824.84;5052563;28;19916;-74
2022/04/07 02:12:54;;;;;;;;;;;;;;;15.50;56.43;98804.34;5051757;28;20002;-74
2022/04/07 02:15:19;;;;;;;;;;;;;;;15.44;56.27;98808.28;5052160;28;20370;-72
2022/04/07 02:17:44;;;;;;;;;;;;;;;15.47;56.45;98802.25;5051791;28;20416;-74
2022/04/07 02:20:10;;;;;;;;;;;;;;;15.98;54.99;98785.59;5050076;28;19916;-73
2022/04/07 02:22:35;;;;;;;;;;;;;;;15.97;55.11;98779.34;5050799;28;19908;-75
2022/04/07 02:25:01;;;;;;;;;;;;;;;15.62;56.92;98778.34;5051284;28;20427;-73
2022/04/07 02:27:32;;;;;;;;;;;;;;;15.21;57.15;98769.56;5050987;28;19951;-74
2022/04/07 02:29:58;;;;;;;;;;;;;;;15.68;56.77;98760.06;5051511;28;20336;-75
2022/04/07 02:32:25;;;;;;;;;;;;;;;15.36;57.51;98760.28;5051785;28;19912;-73
2022/04/07 02:34:50;;;;;;;;;;;;;;;15.29;57.23;98774.22;5051503;28;19974;-75
2022/04/07 02:37:16;;;;;;;;;;;;;;;15.32;58.07;98751.16;5051801;28;19916;-72
2022/04/07 02:39:41;;;;;;;;;;;;;;;14.72;59.51;98753.34;5051572;28;20478;-73
2022/04/07 02:42:06;;;;;;;;;;;;;;;15.58;57.45;98741.38;5052699;28;19920;-74
2022/04/07 02:44:31;;;;;;;;;;;;;;;14.98;59.02;98734.66;5051932;28;19921;-74
2022/04/07 02:46:57;;;;;;;;;;;;;;;15.55;57.31;98725.72;5050052;28;19920;-74
2022/04/07 02:49:22;;;;;;;;;;;;;;;14.45;60.55;98726.31;5050862;28;19919;-73
2022/04/07 02:51:47;;;;;;;;;;;;;;;15.29;57.94;98713.91;5052076;28;19921;-74
2022/04/07 02:54:12;;;;;;;;;;;;;;;15.43;58.38;98701.91;5051897;28;19920;-74
2022/04/07 02:56:38;;;;;;;;;;;;;;;15.31;58.42;98701.66;5051799;28;19928;-76
2022/04/07 02:59:03;;;;;;;;;;;;;;;14.80;59.33;98691.22;5051996;28;19985;-73
2022/04/07 03:01:29;;;;;;;;;;;;;;;15.60;57.63;98693.13;5052567;28;19912;-73
2022/04/07 03:03:55;;;;;;;;;;;;;;;14.11;62.21;98689.69;5051937;28;19917;-73
2022/04/07 03:06:21;;;;;;;;;;;;;;;15.39;58.67;98671.13;5052286;28;19916;-75
2022/04/07 03:08:46;;;;;;;;;;;;;;;14.07;61.73;98679.81;5051834;28;19912;-74
2022/04/07 03:11:13;;;;;;;;;;;;;;;15.27;58.90;98679.00;5051736;28;20386;-72
2022/04/07 03:13:38;;;;;;;;;;;;;;;15.45;58.67;98677.28;5051925;28;19921;-73
2022/04/07 03:16:04;;;;;;;;;;;;;;;14.92;59.80;98674.44;5051735;28;19924;-74
2022/04/07 03:18:29;;;;;;;;;;;;;;;14.38;61.89;98677.31;5051674;28;19917;-74
2022/04/07 03:20:54;;;;;;;;;;;;;;;14.32;61.58;98683.91;5051845;28;19916;-73
2022/04/07 03:23:20;;;;;;;;;;;;;;;14.49;60.85;98667.88;5051605;28;20287;-76
2022/04/07 03:25:45;;;;;;;;;;;;;;;14.49;60.66;98667.88;5051583;28;20371;-74
2022/04/07 03:28:11;;;;;;;;;;;;;;;14.74;59.84;98661.91;5051316;28;19956;-74
2022/04/07 03:30:36;;;;;;;;;;;;;;;14.32;61.14;98655.00;5051601;28;19924;-74
2022/04/07 03:33:02;;;;;;;;;;;;;;;14.62;59.97;98667.84;5051296;28;19989;-74
2022/04/07 03:35:27;;;;;;;;;;;;;;;15.21;58.55;98641.59;5051263;28;19913;-73
2022/04/07 03:37:52;;;;;;;;;;;;;;;15.17;57.63;98638.69;5052372;28;20007;-74
2022/04/07 03:40:18;;;;;;;;;;;;;;;14.51;59.09;98627.81;5055866;28;19955;-74
2022/04/07 03:42:44;;;;;;;;;;;;;;;14.60;59.17;98639.53;5054634;28;19939;-75
2022/04/07 03:45:09;;;;;;;;;;;;;;;15.06;57.68;98626.50;5054834;28;19974;-74
2022/04/07 03:47:34;;;;;;;;;;;;;;;14.81;58.47;98627.13;5054629;28;20424;-73
2022/04/07 03:50:00;;;;;;;;;;;;;;;15.11;56.82;98617.50;5054713;28;20276;-74
2022/04/07 03:52:25;;;;;;;;;;;;;;;14.88;57.72;98619.38;5055469;28;19911;-73
2022/04/07 03:54:50;;;;;;;;;;;;;;;15.13;56.39;98596.34;5054553;28;19940;-74
2022/04/07 03:57:16;;;;;;;;;;;;;;;14.25;59.01;98599.75;5054334;28;20296;-75
2022/04/07 03:59:42;;;;;;;;;;;;;;;14.94;57.29;98594.63;5054811;28;19923;-74
2022/04/07 04:02:08;;;;;;;;;;;;;;;14.86;57.55;98565.63;5049165;28;19953;-76
2022/04/07 04:04:33;;;;;;;;;;;;;;;14.73;58.43;98560.28;5034721;28;19960;-73
2022/04/07 04:06:59;;;;;;;;;;;;;;;15.15;57.39;98548.13;5034548;28;19920;-74
2022/04/07 04:09:24;;;;;;;;;;;;;;;15.46;56.83;98544.34;5034036;28;19919;-74
2022/04/07 04:11:49;;;;;;;;;;;;;;;15.68;56.03;98536.09;5034405;28;19996;-74
2022/04/07 04:14:14;;;;;;;;;;;;;;;15.37;56.43;98519.09;5033905;28;19928;-74
2022/04/07 04:16:41;;;;;;;;;;;;;;;15.82;55.57;98517.03;5048677;28;19916;-73
2022/04/07 04:19:06;;;;;;;;;;;;;;;15.53;55.95;98504.06;5054078;28;20281;-74
2022/04/07 04:21:32;;;;;;;;;;;;;;;15.45;55.86;98495.94;5040266;28;20011;-75
2022/04/07 04:23:57;;;;;;;;;;;;;;;16.73;53.02;98498.72;5034208;28;19924;-73
2022/04/07 04:26:22;;;;;;;;;;;;;;;16.12;54.45;98485.50;5048211;28;20369;-74
2022/04/07 04:28:47;;;;;;;;;;;;;;;15.43;56.72;98482.69;5053984;28;20360;-74
2022/04/07 04:31:12;;;;;;;;;;;;;;;15.09;57.56;98482.53;5052655;28;20024;-73
2022/04/07 04:33:38;;;;;;;;;;;;;;;15.33;57.59;98466.69;5054198;28;20099;-74
2022/04/07 04:36:03;;;;;;;;;;;;;;;15.21;57.96;98453.00;5052144;28;20280;-72
2022/04/07 04:38:29;;;;;;;;;;;;;;;15.27;57.45;98450.94;5053915;28;19919;-74
2022/04/07 04:40:54;;;;;;;;;;;;;;;15.01;57.90;98447.34;5054057;28;19912;-75
2022/04/07 04:43:19;;;;;;;;;;;;;;;15.50;56.92;98422.69;5054489;28;19916;-73
2022/04/07 04:45:44;;;;;;;;;;;;;;;15.48;56.53;98419.50;5053973;28;20303;-74
2022/04/07 04:48:10;;;;;;;;;;;;;;;15.78;56.44;98405.81;5053767;28;19912;-74
2022/04/07 04:50:35;;;;;;;;;;;;;;;16.26;55.13;98392.09;5051633;28;19935;-73
2022/04/07 04:53:01;;;;;;;;;;;;;;;15.63;56.85;98392.75;5054072;28;19908;-74
2022/04/07 04:55:26;;;;;;;;;;;;;;;15.31;57.85;98389.69;5054040;28;19954;-73
2022/04/07 04:57:52;;;;;;;;;;;;;;;15.77;56.47;98379.06;5053561;28;19948;-74
2022/04/07 05:00:17;;;;;;;;;;;;;;;15.06;58.28;98374.97;5053872;28;20459;-74
2022/04/07 05:02:42;;;;;;;;;;;;;;;14.50;60.22;98374.91;5054386;28;19990;-75
2022/04/07 05:05:08;;;;;;;;;;;;;;;14.47;59.59;98368.22;5054133;28;19999;-74
2022/04/07 05:07:33;;;;;;;;;;;;;;;14.50;59.98;98356.00;5053731;28;19923;-73
2022/04/07 05:09:58;;;;;;;;;;;;;;;14.66;59.50;98339.03;5053274;28;19923;-73
2022/04/07 05:12:24;;;;;;;;;;;;;;;14.89;58.74;98342.47;5051643;28;19962;-74
2022/04/07 05:14:49;;;;;;;;;;;;;;;14.94;59.06;98323.38;5053497;28;19970;-73
2022/04/07 05:17:14;;;;;;;;;;;;;;;14.57;60.60;98335.50;5052810;28;20015;-71
2022/04/07 05:19:39;;;;;;;;;;;;;;;14.57;59.56;98326.59;5053769;28;19951;-72
2022/04/07 05:22:04;;;;;;;;;;;;;;;14.58;59.68;98326.31;5053432;28;19923;-74
2022/04/07 05:24:30;;;;;;;;;;;;;;;14.73;59.54;98320.47;5050965;28;20364;-74
2022/04/07 05:26:55;;;;;;;;;;;;;;;14.40;60.89;98296.81;5052351;28;19916;-73
2022/04/07 05:29:20;;;;;;;;;;;;;;;14.09;61.89;98299.50;5052990;28;19948;-74
2022/04/07 05:31:46;;;;;;;;;;;;;;;14.37;60.68;98278.53;5052540;28;19912;-74
2022/04/07 05:34:13;;;;;;;;;;;;;;;14.11;62.10;98256.78;5052105;28;20029;-74
2022/04/07 05:36:39;;;;;;;;;;;;;;;14.70;60.22;98269.72;5052852;28;20317;-75
2022/04/07 05:39:05;;;;;;;;;;;;;;;14.43;61.41;98266.44;5051039;28;19943;-76
2022/04/07 05:41:30;;;;;;;;;;;;;;;14.41;61.04;98277.59;5053008;28;20303;-73
2022/04/07 05:43:55;;;;;;;;;;;;;;;14.51;60.85;98263.78;5052541;28;19912;-75
2022/04/07 05:46:20;;;;;;;;;;;;;;;13.92;62.55;98267.00;5053327;28;19913;-75
2022/04/07 05:48:46;;;;;;;;;;;;;;;14.49;60.81;98289.53;5052019;28;20323;-76
2022/04/07 05:51:12;;;;;;;;;;;;;;;13.73;62.98;98369.78;5050688;28;19917;-76
2022/04/07 05:53:37;;;;;;;;;;;;;;;12.15;61.68;98428.16;5052266;28;19913;-72
2022/04/07 05:56:02;;;;;;;;;;;;;;;8.96;64.69;98432.59;5051888;28;19970;-74
2022/04/07 05:58:28;;;;;;;;;;;;;;;9.32;63.48;98424.13;5052515;28;19917;-75
2022/04/07 06:00:53;;;;;;;;;;;;;;;10.80;60.22;98423.50;5051916;28;19975;-74
2022/04/07 06:03:19;;;;;;;;;;;;;;;10.23;60.61;98413.59;5052175;28;19938;-74
2022/04/07 06:05:45;;;;;;;;;;;;;;;10.92;58.58;98391.66;5052065;28;19916;-74
2022/04/07 06:08:10;;;;;;;;;;;;;;;10.71;58.80;98409.13;5051446;28;19921;-74
2022/04/07 06:10:36;;;;;;;;;;;;;;;10.40;60.21;98431.97;5051594;28;20383;-78
2022/04/07 06:13:03;;;;;;;;;;;;;;;10.42;59.79;98421.75;5051556;28;19916;-76
2022/04/07 06:15:30;;;;;;;;;;;;;;;10.70;59.32;98417.44;5051441;28;20003;-74
2022/04/07 06:17:55;;;;;;;;;;;;;;;12.00;55.85;98404.97;5051741;28;20405;-72
2022/04/07 06:20:21;;;;;;;;;;;;;;;10.94;58.28;98413.69;5051422;28;19921;-74
2022/04/07 06:22:46;;;;;;;;;;;;;;;10.71;58.78;98441.34;5052302;28;19913;-75
2022/04/07 06:25:12;;;;;;;;;;;;;;;10.42;60.52;98451.28;5052679;28;20016;-75
2022/04/07 06:27:38;;;;;;;;;;;;;;;10.64;60.16;98446.22;5051564;28;19920;-73
2022/04/07 06:30:04;;;;;;;;;;;;;;;10.10;62.63;98424.97;5051903;28;19975;-75
2022/04/07 06:32:30;;;;;;;;;;;;;;;10.53;61.32;98412.50;5052292;28;19967;-75
2022/04/07 06:34:55;;;;;;;;;;;;;;;11.09;59.88;98413.50;5048934;28;19952;-73
2022/04/07 06:37:20;;;;;;;;;;;;;;;10.51;61.68;98406.63;5052443;28;19966;-75
2022/04/07 06:39:45;;;;;;;;;;;;;;;10.45;61.09;98415.81;5052275;28;19916;-72
2022/04/07 06:42:11;;;;;;;;;;;;;;;10.66;61.25;98414.53;5050755;28;19947;-72
2022/04/07 06:44:36;;;;;;;;;;;;;;;9.95;63.19;98398.22;5044773;28;19985;-71
2022/04/07 06:47:03;;;;;;;;;;;;;;;10.18;61.91;98419.00;5049363;28;20000;-75
2022/04/07 06:49:28;;;;;;;;;;;;;;;10.59;61.17;98419.44;5051339;28;19916;-74
2022/04/07 06:51:53;;;;;;;;;;;;;;;9.82;63.16;98390.03;5052367;28;20437;-74
2022/04/07 06:54:18;;;;;;;;;;;;;;;10.32;61.84;98385.06;5052331;28;20399;-74
2022/04/07 06:56:44;;;;;;;;;;;;;;;10.36;60.89;98383.41;5050499;28;20380;-76
2022/04/07 06:59:09;;;;;;;;;;;;;;;10.31;61.40;98353.13;5052371;28;19938;-73
2022/04/07 07:01:34;;;;;;;;;;;;;;;10.21;61.89;98359.41;5052436;28;19912;-76
2022/04/07 07:03:59;;;;;;;;;;;;;;;10.29;63.05;98340.00;5083989;28;19919;-73
2022/04/07 07:06:24;;;;;;;;;;;;;;;10.46;60.86;98326.94;5051524;28;20245;-74
2022/04/07 07:08:50;;;;;;;;;;;;;;;10.72;60.49;98327.44;5052057;28;20039;-72
2022/04/07 07:11:15;;;;;;;;;;;;;;;9.91;63.82;98329.31;5050349;28;19923;-74
2022/04/07 07:13:40;;;;;;;;;;;;;;;10.69;61.19;98332.59;5054596;28;20299;-75
2022/04/07 07:16:06;;;;;;;;;;;;;;;10.01;62.96;98316.63;5055442;28;20357;-70
2022/04/07 07:18:31;;;;;;;;;;;;;;;10.92;60.90;98312.94;5055523;28;20364;-74
2022/04/07 07:20:56;;;;;;;;;;;;;;;10.84;61.02;98297.47;5055222;28;20000;-73
2022/04/07 07:23:22;;;;;;;;;;;;;;;9.95;66.79;98277.53;5055289;28;19920;-72
2022/04/07 07:25:47;;;;;;;;;;;;;;;10.23;62.54;98279.41;5053787;28;19913;-73
2022/04/07 07:28:12;;;;;;;;;;;;;;;11.12;61.07;98267.78;5056154;28;19924;-72
2022/04/07 07:30:38;;;;;;;;;;;;;;;10.74;61.91;98249.25;5055800;28;19939;-73
2022/04/07 07:33:03;;;;;;;;;;;;;;;10.40;62.90;98270.88;5056023;28;19917;-72
2022/04/07 07:35:29;;;;;;;;;;;;;;;11.41;60.62;98267.63;5055289;28;19924;-70
2022/04/07 07:37:58;;;;;;;;;;;;;;;10.60;62.44;98265.28;5054594;28;19917;-73
2022/04/07 07:40:25;;;;;;;;;;;;;;;10.39;62.98;98245.13;5053402;28;19920;-76
2022/04/07 07:42:53;;;;;;;;;;;;;;;10.78;61.18;98258.31;5055551;28;19936;-72
2022/04/07 07:45:18;;;;;;;;;;;;;;;10.63;62.36;98244.00;5053462;28;19917;-74
2022/04/07 07:47:43;;;;;;;;;;;;;;;10.60;62.16;98266.09;5055724;28;19922;-75
2022/04/07 07:50:09;;;;;;;;;;;;;;;9.75;64.34;98257.06;5055364;28;20396;-73
2022/04/07 07:52:34;;;;;;;;;;;;;;;9.87;64.95;98229.84;5054729;28;20345;-73
2022/04/07 07:54:59;;;;;;;;;;;;;;;10.82;61.84;98184.94;5055177;28;20383;-72
2022/04/07 07:57:25;;;;;;;;;;;;;;;10.77;60.68;98171.56;5054629;28;19923;-73
2022/04/07 07:59:51;;;;;;;;;;;;;;;11.47;59.73;98188.47;5055159;28;19916;-73
2022/04/07 08:02:16;;;;;;;;;;;;;;;11.30;59.83;98189.00;5055187;28;19913;-74
2022/04/07 08:04:41;;;;;;;;;;;;;;;11.06;60.82;98192.91;5055032;28;20417;-74
2022/04/07 08:07:25;;;;;;;;;;;;;;;11.54;59.26;98196.16;5054925;28;20019;-72
2022/04/07 08:09:51;;;;;;;;;;;;;;;11.08;60.97;98182.66;5050556;28;20365;-74
2022/04/07 08:12:16;;;;;;;;;;;;;;;10.78;61.16;98180.44;5055140;28;19962;-72
2022/04/07 08:14:41;;;;;;;;;;;;;;;11.17;60.15;98164.75;5055223;28;19920;-73
2022/04/07 08:17:06;;;;;;;;;;;;;;;11.68;59.39;98170.88;5053447;28;19944;-73
2022/04/07 08:19:32;;;;;;;;;;;;;;;11.40;60.01;98156.56;5056421;28;19991;-72
2022/04/07 08:21:57;;;;;;;;;;;;;;;12.11;57.91;98168.69;5054550;28;19955;-73
2022/04/07 08:24:22;;;;;;;;;;;;;;;11.88;58.40;98178.59;5053525;28;20518;-72
2022/04/07 08:26:48;;;;;;;;;;;;;;;11.78;58.74;98178.78;5054224;28;19924;-74
2022/04/07 08:29:13;;;;;;;;;;;;;;;11.83;59.42;98173.28;5054810;28;19928;-72
2022/04/07 08:31:39;;;;;;;;;;;;;;;12.56;57.58;98161.59;5055002;28;19912;-73
2022/04/07 08:34:04;;;;;;;;;;;;;;;11.86;59.32;98166.50;5053075;28;20036;-73
2022/04/07 08:36:29;;;;;;;;;;;;;;;11.41;60.50;98173.50;5054660;28;19985;-73
2022/04/07 08:38:55;;;;;;;;;;;;;;;12.35;58.41;98177.38;5054462;28;19928;-75
2022/04/07 08:41:20;;;;;;;;;;;;;;;12.55;58.03;98181.53;5054526;28;20382;-75
2022/04/07 08:43:46;;;;;;;;;;;;;;;12.22;59.32;98172.81;5055270;28;19962;-73
2022/04/07 08:46:12;;;;;;;;;;;;;;;12.20;59.06;98161.53;5054475;28;19952;-74
2022/04/07 08:48:38;;;;;;;;;;;;;;;12.16;59.54;98171.31;5054819;28;19912;-73
2022/04/07 08:51:04;;;;;;;;;;;;;;;12.14;60.15;98160.03;5055210;28;19931;-74
2022/04/07 08:53:30;;;;;;;;;;;;;;;12.41;59.33;98160.00;5053978;28;19923;-73
2022/04/07 08:55:55;;;;;;;;;;;;;;;13.28;57.07;98162.31;5054206;28;19908;-73
2022/04/07 08:58:20;;;;;;;;;;;;;;;12.54;59.43;98144.94;5054899;28;19919;-73
2022/04/07 09:00:47;;;;;;;;;;;;;;;12.68;58.33;98140.28;5054291;28;19917;-72
2022/04/07 09:03:12;;;;;;;;;;;;;;;13.02;58.11;98149.44;5053801;28;19924;-73
2022/04/07 09:05:50;;;;;;;;;;;;;;;13.51;57.04;98143.09;5053576;28;19916;-73
2022/04/07 09:08:16;;;;;;;;;;;;;;;13.23;57.48;98144.38;5054234;28;19959;-77
2022/04/07 09:10:41;;;;;;;;;;;;;;;13.82;57.17;98140.38;5054472;28;19940;-75
2022/04/07 09:13:06;;;;;;;;;;;;;;;13.57;56.62;98146.47;5053819;28;19925;-72
2022/04/07 09:15:31;;;;;;;;;;;;;;;13.68;56.32;98145.09;5052355;28;20380;-72
2022/04/07 09:17:59;;;;;;;;;;;;;;;14.51;54.14;98144.88;5053457;28;20459;-73
2022/04/07 09:20:24;;;;;;;;;;;;;;;13.40;55.90;98140.97;5053520;28;20382;-75
2022/04/07 09:22:59;;;;;;;;;;;;;;;14.28;54.16;98139.91;5053700;28;19916;-73
2022/04/07 09:25:25;;;;;;;;;;;;;;;14.39;53.95;98163.63;5054109;28;19919;-71
2022/04/07 09:27:50;;;;;;;;;;;;;;;14.02;55.00;98177.63;5053564;28;19913;-75
2022/04/07 09:30:15;;;;;;;;;;;;;;;14.39;54.81;98152.81;5053952;28;20014;-72
2022/04/07 09:32:44;;;;;;;;;;;;;;;14.10;55.11;98152.56;5054031;28;19916;-74
2022/04/07 09:35:11;;;;;;;;;;;;;;;14.47;53.30;98149.34;5051979;28;20273;-73
2022/04/07 09:37:38;;;;;;;;;;;;;;;15.01;53.13;98139.81;5053775;28;19958;-72
2022/04/07 09:40:07;;;;;;;;;;;;;;;14.27;53.70;98154.53;5053526;28;19928;-72
2022/04/07 09:42:33;;;;;;;;;;;;;;;14.85;53.67;98134.09;5053127;28;19967;-73
2022/04/07 09:45:01;;;;;;;;;;;;;;;14.73;53.29;98133.13;5053233;28;19921;-73
2022/04/07 09:47:45;;;;;;;;;;;;;;;15.26;52.78;98119.25;5052226;28;19924;-74
2022/04/07 09:50:20;;;;;;;;;;;;;;;15.12;52.73;98127.53;5052906;28;19924;-70
2022/04/07 09:52:55;;;;;;;;;;;;;;;15.04;52.11;98131.06;5053319;28;19917;-72
2022/04/07 09:55:21;;;;;;;;;;;;;;;15.06;51.55;98125.31;5053143;28;19917;-74
2022/04/07 09:57:46;;;;;;;;;;;;;;;16.17;49.38;98119.56;5051447;28;19944;-74
2022/04/07 10:00:12;;;;;;;;;;;;;;;15.84;50.65;98131.03;5051744;28;20447;-74
2022/04/07 10:02:37;;;;;;;;;;;;;;;15.44;49.83;98099.97;5052123;28;19912;-74
2022/04/07 10:05:03;;;;;;;;;;;;;;;15.95;49.34;98130.66;5052023;28;19916;-73
2022/04/07 10:07:28;;;;;;;;;;;;;;;15.13;47.25;98145.38;5052582;28;19912;-75
2022/04/07 10:09:54;;;;;;;;;;;;;;;14.99;46.67;98120.41;5051942;28;19923;-72
2022/04/07 10:12:20;;;;;;;;;;;;;;;14.63;47.54;98125.34;5052005;28;20024;-71
2022/04/07 10:14:45;;;;;;;;;;;;;;;14.59;47.44;98144.09;5051736;28;19921;-73
2022/04/07 10:17:13;;;;;;;;;;;;;;;15.15;47.51;98145.06;5051951;28;19943;-74
2022/04/07 10:19:45;;;;;;;;;;;;;;;15.29;45.92;98167.31;5052529;28;19955;-71
2022/04/07 10:22:32;;;;;;;;;;;;;;;15.13;46.32;98148.09;5052153;28;19916;-73
2022/04/07 10:25:02;;;;;;;;;;;;;;;15.95;45.25;98152.34;5052799;28;19916;-73
2022/04/07 10:27:29;;;;;;;;;;;;;;;15.93;46.02;98155.38;5052570;28;20004;-71
2022/04/07 10:30:21;;;;;;;;;;;;;;;14.77;46.02;98164.63;5052224;28;19912;-73
2022/04/07 10:32:47;;;;;;;;;;;;;;;15.01;45.89;98153.34;5029893;28;19925;-73
2022/04/07 10:35:29;;;;;;;;;;;;;;;15.39;46.00;98151.53;5032231;28;19917;-74
2022/04/07 10:37:55;;;;;;;;;;;;;;;15.55;46.22;98166.16;5041312;28;19916;-71
2022/04/07 10:40:40;;;;;;;;;;;;;;;14.48;49.25;98164.44;5052584;28;20390;-71
2022/04/07 10:43:11;;;;;;;;;;;;;;;15.04;46.02;98165.41;5052073;28;19917;-71
2022/04/07 10:45:37;;;;;;;;;;;;;;;15.61;45.26;98158.66;5052214;28;19921;-71
2022/04/07 10:48:20;;;;;;;;;;;;;;;14.78;45.99;98151.91;5052897;28;20113;-72
2022/04/07 10:50:50;;;;;;;;;;;;;;;16.03;44.48;98148.78;5056253;28;19938;-71
2022/04/07 10:53:19;;;;;;;;;;;;;;;14.81;44.89;98157.47;5056040;28;19916;-71
2022/04/07 10:55:59;;;;;;;;;;;;;;;14.97;46.67;98155.09;5056914;28;20391;-70
2022/04/07 10:58:44;;;;;;;;;;;;;;;13.49;52.08;98183.09;5055439;28;19927;-72
2022/04/07 11:01:36;;;;;;;;;;;;;;;12.79;55.94;98172.09;5055437;28;19970;-73
2022/04/07 11:04:20;;;;;;;;;;;;;;;13.53;54.35;98170.56;5038477;28;20007;-74
2022/04/07 11:07:04;;;;;;;;;;;;;;;12.89;56.02;98212.25;5055669;28;19923;-72
2022/04/07 11:09:48;;;;;;;;;;;;;;;13.31;54.90;98161.69;5055480;28;19916;-73
2022/04/07 11:12:29;;;;;;;;;;;;;;;13.72;54.12;98179.25;5055309;28;19924;-72
2022/04/07 11:15:15;;;;;;;;;;;;;;;14.06;52.73;98190.19;5055758;28;19921;-71
2022/04/07 11:17:46;;;;;;;;;;;;;;;13.48;53.98;98199.59;5055203;28;19921;-73
2022/04/07 11:20:15;;;;;;;;;;;;;;;13.72;52.45;98173.84;5053200;28;19927;-74
2022/04/07 11:22:50;;;;;;;;;;;;;;;13.57;52.75;98186.94;5055563;28;19915;-73
2022/04/07 11:25:19;;;;;;;;;;;;;;;13.65;52.68;98175.41;5052712;28;19962;-70
2022/04/07 11:27:46;;;;;;;;;;;;;;;14.01;51.26;98194.94;5055298;28;19920;-71
2022/04/07 11:30:13;;;;;;;;;;;;;;;13.73;50.11;98180.03;5050383;28;19928;-73
2022/04/07 11:32:41;;;;;;;;;;;;;;;14.21;49.95;98196.28;5052252;28;20368;-71
2022/04/07 11:35:13;;;;;;;;;;;;;;;13.97;49.68;98202.84;5052729;28;19987;-70
2022/04/07 11:37:40;;;;;;;;;;;;;;;14.54;49.18;98187.50;5053495;28;20010;-70
2022/04/07 11:40:06;;;;;;;;;;;;;;;14.41;48.89;98187.63;5055357;28;20368;-71
2022/04/07 11:42:32;;;;;;;;;;;;;;;13.74;49.17;98214.81;5054882;28;19979;-72
2022/04/07 11:44:58;;;;;;;;;;;;;;;14.60;47.28;98198.97;5055155;28;19947;-74
2022/04/07 11:47:32;;;;;;;;;;;;;;;14.68;46.68;98226.00;5055285;28;19913;-72
2022/04/07 11:49:58;;;;;;;;;;;;;;;14.67;46.73;98216.31;5054981;28;19912;-73
2022/04/07 11:52:24;;;;;;;;;;;;;;;15.13;45.84;98182.44;5055563;28;19915;-72
2022/04/07 11:54:52;;;;;;;;;;;;;;;15.41;46.46;98187.19;5055133;28;19921;-72
2022/04/07 11:57:17;;;;;;;;;;;;;;;15.54;45.30;98220.63;5054741;28;19970;-72
2022/04/07 11:59:43;;;;;;;;;;;;;;;15.00;46.30;98194.25;5053610;28;19921;-71
2022/04/07 12:02:08;;;;;;;;;;;;;;;15.16;45.98;98188.00;5055073;28;19955;-74
2022/04/07 12:04:34;;;;;;;;;;;;;;;15.90;44.33;98185.81;5056172;28;19935;-71
2022/04/07 12:07:02;;;;;;;;;;;;;;;15.26;45.13;98181.47;5054449;28;19923;-73
2022/04/07 12:09:27;;;;;;;;;;;;;;;15.03;45.27;98188.19;5054580;28;19924;-71
2022/04/07 12:11:53;;;;;;;;;;;;;;;14.71;46.20;98200.25;5053977;28;19913;-72
2022/04/07 12:14:24;;;;;;;;;;;;;;;14.92;45.34;98206.63;5052918;28;20403;-72
2022/04/07 12:16:49;;;;;;;;;;;;;;;15.17;44.67;98203.16;5054502;28;19913;-70
2022/04/07 12:19:16;;;;;;;;;;;;;;;15.91;43.56;98186.59;5055114;28;19966;-70
2022/04/07 12:22:00;;;;;;;;;;;;;;;15.99;41.82;98193.91;5054464;28;19942;-70
2022/04/07 12:24:26;;;;;;;;;;;;;;;16.04;42.64;98201.88;5053836;28;19916;-70
2022/04/07 12:26:52;;;;;;;;;;;;;;;15.76;42.62;98199.53;5053898;28;20050;-74
2022/04/07 12:29:25;;;;;;;;;;;;;;;16.17;42.11;98200.84;5054200;28;20260;-72
2022/04/07 12:32:00;;;;;;;;;;;;;;;15.66;42.22;98231.59;5054147;28;19987;-69
2022/04/07 12:34:25;;;;;;;;;;;;;;;16.46;41.38;98209.78;5054900;28;19956;-74
2022/04/07 12:36:52;;;;;;;;;;;;;;;15.96;41.95;98197.28;5054271;28;19971;-72
2022/04/07 12:39:17;;;;;;;;;;;;;;;15.81;41.57;98198.59;5053859;28;19917;-70
2022/04/07 12:41:50;;;;;;;;;;;;;;;16.14;41.69;98196.06;5054317;28;19921;-70
2022/04/07 12:44:22;;;;;;;;;;;;;;;15.29;42.68;98243.09;5054114;28;19966;-75
2022/04/07 12:46:49;;;;;;;;;;;;;;;15.33;41.90;98215.03;5054211;28;20273;-72